sensor_id;sensor_type;location;lat;lon;timestamp;temperature;humidity
49765;DHT22;35657;51.204;-4.130;2023-03-05T00:02:11;6.30;99.90
49765;DHT22;35657;51.204;-4.130;2023-03-05T00:04:37;6.20;99.90
49765;DHT22;35657;51.204;-4.130;2023-03-05T00:07:03;6.20;99.90
49765;DHT22;35657;51.204;-4.130;2023-03-05T00:09:30;6.30;99.90
49765;DHT22;35657;51.204;-4.130;2023-03-05T00:11:55;6.30;99.90
49765;DHT22;35657;51.204;-4.130;2023-03-05T00:14:22;6.20;99.90
49765;DHT22;35657;51.204;-4.130;2023-03-05T00:16:47;6.20;99.90
49765;DHT22;35657;51.204;-4.130;2023-03-05T00:19:13;6.10;99.90
49765;DHT22;35657;51.204;-4.130;2023-03-05T00:21:40;6.10;99.90
49765;DHT22;35657;51.204;-4.130;2023-03-05T00:24:11;6.20;99.90
49765;DHT22;35657;51.204;-4.130;2023-03-05T00:26:37;6.30;99.90
49765;DHT22;35657;51.204;-4.130;2023-03-05T00:29:05;6.30;99.90
49765;DHT22;35657;51.204;-4.130;2023-03-05T00:31:33;6.40;99.90
49765;DHT22;35657;51.204;-4.130;2023-03-05T00:34:08;6.40;99.90
49765;DHT22;35657;51.204;-4.130;2023-03-05T00:36:39;6.40;99.90
49765;DHT22;35657;51.204;-4.130;2023-03-05T00:39:05;6.30;99.90
49765;DHT22;35657;51.204;-4.130;2023-03-05T00:41:32;6.30;99.90
49765;DHT22;35657;51.204;-4.130;2023-03-05T00:43:57;6.30;99.90
49765;DHT22;35657;51.204;-4.130;2023-03-05T00:46:23;6.30;99.90
49765;DHT22;35657;51.204;-4.130;2023-03-05T00:48:52;6.30;99.90
49765;DHT22;35657;51.204;-4.130;2023-03-05T00:51:18;6.30;99.90
49765;DHT22;35657;51.204;-4.130;2023-03-05T00:53:43;6.30;99.90
49765;DHT22;35657;51.204;-4.130;2023-03-05T00:56:10;6.20;99.90
49765;DHT22;35657;51.204;-4.130;2023-03-05T00:58:35;6.20;99.90
49765;DHT22;35657;51.204;-4.130;2023-03-05T01:01:02;6.20;99.90
49765;DHT22;35657;51.204;-4.130;2023-03-05T01:03:29;6.20;99.90
49765;DHT22;35657;51.204;-4.130;2023-03-05T01:05:55;6.30;99.90
49765;DHT22;35657;51.204;-4.130;2023-03-05T01:08:21;6.40;99.90
49765;DHT22;35657;51.204;-4.130;2023-03-05T01:10:47;6.40;99.90
49765;DHT22;35657;51.204;-4.130;2023-03-05T01:13:13;6.40;99.90
49765;DHT22;35657;51.204;-4.130;2023-03-05T01:15:39;6.40;99.90
49765;DHT22;35657;51.204;-4.130;2023-03-05T01:18:04;6.40;99.90
49765;DHT22;35657;51.204;-4.130;2023-03-05T01:20:30;6.40;99.90
49765;DHT22;35657;51.204;-4.130;2023-03-05T01:22:56;6.40;99.90
49765;DHT22;35657;51.204;-4.130;2023-03-05T01:25:23;6.50;99.90
49765;DHT22;35657;51.204;-4.130;2023-03-05T01:27:49;6.50;99.90
49765;DHT22;35657;51.204;-4.130;2023-03-05T01:30:15;6.50;99.90
49765;DHT22;35657;51.204;-4.130;2023-03-05T01:32:41;6.70;99.90
49765;DHT22;35657;51.204;-4.130;2023-03-05T01:35:16;6.60;99.90
49765;DHT22;35657;51.204;-4.130;2023-03-05T01:37:42;6.60;99.90
49765;DHT22;35657;51.204;-4.130;2023-03-05T01:40:14;6.60;99.90
49765;DHT22;35657;51.204;-4.130;2023-03-05T01:42:45;6.70;99.90
49765;DHT22;35657;51.204;-4.130;2023-03-05T01:45:16;6.80;99.90
49765;DHT22;35657;51.204;-4.130;2023-03-05T01:47:42;6.70;99.90
49765;DHT22;35657;51.204;-4.130;2023-03-05T01:50:12;6.60;99.90
49765;DHT22;35657;51.204;-4.130;2023-03-05T01:52:40;6.60;99.90
49765;DHT22;35657;51.204;-4.130;2023-03-05T01:55:12;6.50;99.90
49765;DHT22;35657;51.204;-4.130;2023-03-05T01:57:43;6.50;99.90
49765;DHT22;35657;51.204;-4.130;2023-03-05T02:00:19;6.50;99.90
49765;DHT22;35657;51.204;-4.130;2023-03-05T02:02:48;6.50;99.90
49765;DHT22;35657;51.204;-4.130;2023-03-05T02:05:30;6.50;99.90
49765;DHT22;35657;51.204;-4.130;2023-03-05T02:07:59;6.50;99.90
49765;DHT22;35657;51.204;-4.130;2023-03-05T02:10:28;6.40;99.90
49765;DHT22;35657;51.204;-4.130;2023-03-05T02:12:58;6.30;99.90
49765;DHT22;35657;51.204;-4.130;2023-03-05T02:15:25;6.20;99.90
49765;DHT22;35657;51.204;-4.130;2023-03-05T02:17:50;6.10;99.90
49765;DHT22;35657;51.204;-4.130;2023-03-05T02:20:25;6.10;99.90
49765;DHT22;35657;51.204;-4.130;2023-03-05T02:22:51;6.00;99.90
49765;DHT22;35657;51.204;-4.130;2023-03-05T02:25:20;6.20;99.90
49765;DHT22;35657;51.204;-4.130;2023-03-05T02:27:57;6.20;99.90
49765;DHT22;35657;51.204;-4.130;2023-03-05T02:30:25;6.20;99.90
49765;DHT22;35657;51.204;-4.130;2023-03-05T02:32:50;6.20;99.90
49765;DHT22;35657;51.204;-4.130;2023-03-05T02:35:16;6.20;99.90
49765;DHT22;35657;51.204;-4.130;2023-03-05T02:37:42;6.10;99.90
49765;DHT22;35657;51.204;-4.130;2023-03-05T02:40:09;6.10;99.90
49765;DHT22;35657;51.204;-4.130;2023-03-05T02:42:35;6.10;99.90
49765;DHT22;35657;51.204;-4.130;2023-03-05T02:45:01;6.10;99.90
49765;DHT22;35657;51.204;-4.130;2023-03-05T02:47:28;6.10;99.90
49765;DHT22;35657;51.204;-4.130;2023-03-05T02:49:54;6.20;99.90
49765;DHT22;35657;51.204;-4.130;2023-03-05T02:52:20;6.20;99.90
49765;DHT22;35657;51.204;-4.130;2023-03-05T02:54:48;6.10;99.90
49765;DHT22;35657;51.204;-4.130;2023-03-05T02:57:15;6.10;99.90
49765;DHT22;35657;51.204;-4.130;2023-03-05T02:59:41;6.10;99.90
49765;DHT22;35657;51.204;-4.130;2023-03-05T03:02:06;6.00;99.90
49765;DHT22;35657;51.204;-4.130;2023-03-05T03:04:32;6.00;99.90
49765;DHT22;35657;51.204;-4.130;2023-03-05T03:06:58;6.00;99.90
49765;DHT22;35657;51.204;-4.130;2023-03-05T03:09:24;6.00;99.90
49765;DHT22;35657;51.204;-4.130;2023-03-05T03:11:51;6.00;99.90
49765;DHT22;35657;51.204;-4.130;2023-03-05T03:14:18;6.00;99.90
49765;DHT22;35657;51.204;-4.130;2023-03-05T03:16:43;5.90;99.90
49765;DHT22;35657;51.204;-4.130;2023-03-05T03:19:09;5.90;99.90
49765;DHT22;35657;51.204;-4.130;2023-03-05T03:21:35;5.90;99.90
49765;DHT22;35657;51.204;-4.130;2023-03-05T03:24:01;5.90;99.90
49765;DHT22;35657;51.204;-4.130;2023-03-05T03:26:27;5.90;99.90
49765;DHT22;35657;51.204;-4.130;2023-03-05T03:28:53;5.90;99.90
49765;DHT22;35657;51.204;-4.130;2023-03-05T03:31:19;5.90;99.90
49765;DHT22;35657;51.204;-4.130;2023-03-05T03:33:44;5.80;99.90
49765;DHT22;35657;51.204;-4.130;2023-03-05T03:36:11;5.80;99.90
49765;DHT22;35657;51.204;-4.130;2023-03-05T03:38:36;5.90;99.90
49765;DHT22;35657;51.204;-4.130;2023-03-05T03:41:05;6.00;99.90
49765;DHT22;35657;51.204;-4.130;2023-03-05T03:43:32;6.10;99.90
49765;DHT22;35657;51.204;-4.130;2023-03-05T03:45:58;6.10;99.90
49765;DHT22;35657;51.204;-4.130;2023-03-05T03:48:24;6.10;99.90
49765;DHT22;35657;51.204;-4.130;2023-03-05T03:50:51;6.00;99.90
49765;DHT22;35657;51.204;-4.130;2023-03-05T03:53:16;6.00;99.90
49765;DHT22;35657;51.204;-4.130;2023-03-05T03:55:42;6.00;99.90
49765;DHT22;35657;51.204;-4.130;2023-03-05T03:58:11;6.00;99.90
49765;DHT22;35657;51.204;-4.130;2023-03-05T04:00:37;6.00;99.90
49765;DHT22;35657;51.204;-4.130;2023-03-05T04:03:03;6.00;99.90
49765;DHT22;35657;51.204;-4.130;2023-03-05T04:05:29;5.90;99.90
49765;DHT22;35657;51.204;-4.130;2023-03-05T04:07:55;5.80;99.90
49765;DHT22;35657;51.204;-4.130;2023-03-05T04:10:23;5.70;99.90
49765;DHT22;35657;51.204;-4.130;2023-03-05T04:12:49;5.80;99.90
49765;DHT22;35657;51.204;-4.130;2023-03-05T04:15:15;5.80;99.90
49765;DHT22;35657;51.204;-4.130;2023-03-05T04:17:41;5.80;99.90
49765;DHT22;35657;51.204;-4.130;2023-03-05T04:20:07;5.80;99.90
49765;DHT22;35657;51.204;-4.130;2023-03-05T04:22:35;5.80;99.90
49765;DHT22;35657;51.204;-4.130;2023-03-05T04:25:02;5.80;99.90
49765;DHT22;35657;51.204;-4.130;2023-03-05T04:27:31;5.80;99.90
49765;DHT22;35657;51.204;-4.130;2023-03-05T04:29:59;5.80;99.90
49765;DHT22;35657;51.204;-4.130;2023-03-05T04:32:25;5.70;99.90
49765;DHT22;35657;51.204;-4.130;2023-03-05T04:34:50;5.70;99.90
49765;DHT22;35657;51.204;-4.130;2023-03-05T04:37:16;5.60;99.90
49765;DHT22;35657;51.204;-4.130;2023-03-05T04:39:42;5.60;99.90
49765;DHT22;35657;51.204;-4.130;2023-03-05T04:42:08;5.70;99.90
49765;DHT22;35657;51.204;-4.130;2023-03-05T04:44:35;5.60;99.90
49765;DHT22;35657;51.204;-4.130;2023-03-05T04:47:01;5.70;99.90
49765;DHT22;35657;51.204;-4.130;2023-03-05T04:49:26;5.70;99.90
49765;DHT22;35657;51.204;-4.130;2023-03-05T04:51:52;5.60;99.90
49765;DHT22;35657;51.204;-4.130;2023-03-05T04:54:18;5.70;99.90
49765;DHT22;35657;51.204;-4.130;2023-03-05T04:56:44;5.70;99.90
49765;DHT22;35657;51.204;-4.130;2023-03-05T04:59:09;5.90;99.90
49765;DHT22;35657;51.204;-4.130;2023-03-05T05:01:35;6.00;99.90
49765;DHT22;35657;51.204;-4.130;2023-03-05T05:04:01;6.00;99.90
49765;DHT22;35657;51.204;-4.130;2023-03-05T05:06:27;6.00;99.90
49765;DHT22;35657;51.204;-4.130;2023-03-05T05:08:53;5.90;99.90
49765;DHT22;35657;51.204;-4.130;2023-03-05T05:11:18;5.80;99.90
49765;DHT22;35657;51.204;-4.130;2023-03-05T05:13:44;5.80;99.90
49765;DHT22;35657;51.204;-4.130;2023-03-05T05:16:10;5.80;99.90
49765;DHT22;35657;51.204;-4.130;2023-03-05T05:18:35;5.80;99.90
49765;DHT22;35657;51.204;-4.130;2023-03-05T05:21:01;5.80;99.90
49765;DHT22;35657;51.204;-4.130;2023-03-05T05:23:31;5.80;99.90
49765;DHT22;35657;51.204;-4.130;2023-03-05T05:25:58;5.80;99.90
49765;DHT22;35657;51.204;-4.130;2023-03-05T05:28:24;5.70;99.90
49765;DHT22;35657;51.204;-4.130;2023-03-05T05:30:50;5.80;99.90
49765;DHT22;35657;51.204;-4.130;2023-03-05T05:33:16;5.80;99.90
49765;DHT22;35657;51.204;-4.130;2023-03-05T05:35:42;5.90;99.90
49765;DHT22;35657;51.204;-4.130;2023-03-05T05:38:08;5.80;99.90
49765;DHT22;35657;51.204;-4.130;2023-03-05T05:40:33;5.80;99.90
49765;DHT22;35657;51.204;-4.130;2023-03-05T05:42:59;5.80;99.90
49765;DHT22;35657;51.204;-4.130;2023-03-05T05:45:25;6.00;99.90
49765;DHT22;35657;51.204;-4.130;2023-03-05T05:47:50;5.90;99.90
49765;DHT22;35657;51.204;-4.130;2023-03-05T05:50:18;6.00;99.90
49765;DHT22;35657;51.204;-4.130;2023-03-05T05:52:44;6.00;99.90
49765;DHT22;35657;51.204;-4.130;2023-03-05T05:55:10;6.10;99.90
49765;DHT22;35657;51.204;-4.130;2023-03-05T05:57:36;6.20;99.90
49765;DHT22;35657;51.204;-4.130;2023-03-05T06:00:03;6.30;99.90
49765;DHT22;35657;51.204;-4.130;2023-03-05T06:02:29;6.40;99.90
49765;DHT22;35657;51.204;-4.130;2023-03-05T06:04:55;6.50;99.90
49765;DHT22;35657;51.204;-4.130;2023-03-05T06:07:21;6.50;99.90
49765;DHT22;35657;51.204;-4.130;2023-03-05T06:09:47;6.50;99.90
49765;DHT22;35657;51.204;-4.130;2023-03-05T06:12:13;6.40;99.90
49765;DHT22;35657;51.204;-4.130;2023-03-05T06:14:38;6.30;99.90
49765;DHT22;35657;51.204;-4.130;2023-03-05T06:17:04;6.20;99.90
49765;DHT22;35657;51.204;-4.130;2023-03-05T06:19:31;6.30;99.90
49765;DHT22;35657;51.204;-4.130;2023-03-05T06:21:57;6.20;99.90
49765;DHT22;35657;51.204;-4.130;2023-03-05T06:24:23;6.20;99.90
49765;DHT22;35657;51.204;-4.130;2023-03-05T06:26:48;6.10;99.90
49765;DHT22;35657;51.204;-4.130;2023-03-05T06:29:15;6.00;99.90
49765;DHT22;35657;51.204;-4.130;2023-03-05T06:31:40;6.10;99.90
49765;DHT22;35657;51.204;-4.130;2023-03-05T06:34:06;6.10;99.90
49765;DHT22;35657;51.204;-4.130;2023-03-05T06:36:32;6.10;99.90
49765;DHT22;35657;51.204;-4.130;2023-03-05T06:38:58;6.20;99.90
49765;DHT22;35657;51.204;-4.130;2023-03-05T06:41:27;6.20;99.90
49765;DHT22;35657;51.204;-4.130;2023-03-05T06:43:53;6.20;99.90
49765;DHT22;35657;51.204;-4.130;2023-03-05T06:46:25;6.20;99.90
49765;DHT22;35657;51.204;-4.130;2023-03-05T06:48:53;6.20;99.90
49765;DHT22;35657;51.204;-4.130;2023-03-05T06:51:25;6.20;99.90
49765;DHT22;35657;51.204;-4.130;2023-03-05T06:53:51;6.20;99.90
49765;DHT22;35657;51.204;-4.130;2023-03-05T06:56:18;6.30;99.90
49765;DHT22;35657;51.204;-4.130;2023-03-05T06:58:45;6.20;99.90
49765;DHT22;35657;51.204;-4.130;2023-03-05T07:01:13;6.20;99.90
49765;DHT22;35657;51.204;-4.130;2023-03-05T07:03:38;6.20;99.90
49765;DHT22;35657;51.204;-4.130;2023-03-05T07:06:07;6.20;99.90
49765;DHT22;35657;51.204;-4.130;2023-03-05T07:08:33;6.20;99.90
49765;DHT22;35657;51.204;-4.130;2023-03-05T07:11:00;6.20;99.90
49765;DHT22;35657;51.204;-4.130;2023-03-05T07:13:26;6.20;99.90
49765;DHT22;35657;51.204;-4.130;2023-03-05T07:15:52;6.10;99.90
49765;DHT22;35657;51.204;-4.130;2023-03-05T07:18:19;6.10;99.90
49765;DHT22;35657;51.204;-4.130;2023-03-05T07:20:44;6.20;99.90
49765;DHT22;35657;51.204;-4.130;2023-03-05T07:23:10;6.20;99.90
49765;DHT22;35657;51.204;-4.130;2023-03-05T07:25:36;6.30;99.90
49765;DHT22;35657;51.204;-4.130;2023-03-05T07:28:04;6.30;99.90
49765;DHT22;35657;51.204;-4.130;2023-03-05T07:30:33;6.30;99.90
49765;DHT22;35657;51.204;-4.130;2023-03-05T07:32:59;6.30;99.90
49765;DHT22;35657;51.204;-4.130;2023-03-05T07:35:25;6.40;99.90
49765;DHT22;35657;51.204;-4.130;2023-03-05T07:37:51;6.40;99.90
49765;DHT22;35657;51.204;-4.130;2023-03-05T07:40:17;6.40;99.90
49765;DHT22;35657;51.204;-4.130;2023-03-05T07:42:43;6.30;99.90
49765;DHT22;35657;51.204;-4.130;2023-03-05T07:45:09;6.20;99.90
49765;DHT22;35657;51.204;-4.130;2023-03-05T07:47:35;6.20;99.90
49765;DHT22;35657;51.204;-4.130;2023-03-05T07:50:02;6.30;99.90
49765;DHT22;35657;51.204;-4.130;2023-03-05T07:52:28;6.20;99.90
49765;DHT22;35657;51.204;-4.130;2023-03-05T07:54:53;6.30;99.90
49765;DHT22;35657;51.204;-4.130;2023-03-05T07:57:19;6.30;99.90
49765;DHT22;35657;51.204;-4.130;2023-03-05T07:59:45;6.30;99.90
49765;DHT22;35657;51.204;-4.130;2023-03-05T08:02:13;6.30;99.90
49765;DHT22;35657;51.204;-4.130;2023-03-05T08:04:40;6.30;99.90
49765;DHT22;35657;51.204;-4.130;2023-03-05T08:07:07;6.30;99.90
49765;DHT22;35657;51.204;-4.130;2023-03-05T08:09:33;6.20;99.90
49765;DHT22;35657;51.204;-4.130;2023-03-05T08:11:59;6.20;99.90
49765;DHT22;35657;51.204;-4.130;2023-03-05T08:14:25;6.20;99.90
49765;DHT22;35657;51.204;-4.130;2023-03-05T08:16:50;6.20;99.90
49765;DHT22;35657;51.204;-4.130;2023-03-05T08:19:18;6.20;99.90
49765;DHT22;35657;51.204;-4.130;2023-03-05T08:21:44;6.20;99.90
49765;DHT22;35657;51.204;-4.130;2023-03-05T08:24:11;6.20;99.90
49765;DHT22;35657;51.204;-4.130;2023-03-05T08:26:38;6.30;99.90
49765;DHT22;35657;51.204;-4.130;2023-03-05T08:29:06;6.30;99.90
49765;DHT22;35657;51.204;-4.130;2023-03-05T08:31:32;6.40;99.90
49765;DHT22;35657;51.204;-4.130;2023-03-05T08:34:00;6.30;99.90
49765;DHT22;35657;51.204;-4.130;2023-03-05T08:36:26;6.30;99.90
49765;DHT22;35657;51.204;-4.130;2023-03-05T08:38:52;6.30;99.90
49765;DHT22;35657;51.204;-4.130;2023-03-05T08:41:18;6.40;99.90
49765;DHT22;35657;51.204;-4.130;2023-03-05T08:43:44;6.50;99.90
49765;DHT22;35657;51.204;-4.130;2023-03-05T08:46:14;6.50;99.90
49765;DHT22;35657;51.204;-4.130;2023-03-05T08:48:40;6.50;99.90
49765;DHT22;35657;51.204;-4.130;2023-03-05T08:51:11;6.60;99.90
49765;DHT22;35657;51.204;-4.130;2023-03-05T08:53:38;6.70;99.90
49765;DHT22;35657;51.204;-4.130;2023-03-05T08:56:04;6.70;99.90
49765;DHT22;35657;51.204;-4.130;2023-03-05T08:58:30;6.70;99.90
49765;DHT22;35657;51.204;-4.130;2023-03-05T09:00:56;6.80;99.90
49765;DHT22;35657;51.204;-4.130;2023-03-05T09:03:21;6.70;99.90
49765;DHT22;35657;51.204;-4.130;2023-03-05T09:05:47;6.80;99.90
49765;DHT22;35657;51.204;-4.130;2023-03-05T09:08:13;6.80;99.90
49765;DHT22;35657;51.204;-4.130;2023-03-05T09:10:44;6.60;99.90
49765;DHT22;35657;51.204;-4.130;2023-03-05T09:13:10;6.60;99.90
49765;DHT22;35657;51.204;-4.130;2023-03-05T09:15:37;6.50;99.90
49765;DHT22;35657;51.204;-4.130;2023-03-05T09:18:03;6.70;99.90
49765;DHT22;35657;51.204;-4.130;2023-03-05T09:20:28;6.60;99.90
49765;DHT22;35657;51.204;-4.130;2023-03-05T09:22:54;6.60;99.90
49765;DHT22;35657;51.204;-4.130;2023-03-05T09:25:20;6.60;99.90
49765;DHT22;35657;51.204;-4.130;2023-03-05T09:27:47;6.60;99.90
49765;DHT22;35657;51.204;-4.130;2023-03-05T09:30:14;6.60;99.90
49765;DHT22;35657;51.204;-4.130;2023-03-05T09:32:40;6.60;99.90
49765;DHT22;35657;51.204;-4.130;2023-03-05T09:35:06;6.60;99.90
49765;DHT22;35657;51.204;-4.130;2023-03-05T09:37:33;6.60;99.90
49765;DHT22;35657;51.204;-4.130;2023-03-05T09:39:59;6.60;99.90
49765;DHT22;35657;51.204;-4.130;2023-03-05T09:45:16;6.60;99.90
49765;DHT22;35657;51.204;-4.130;2023-03-05T09:50:27;6.60;99.90
49765;DHT22;35657;51.204;-4.130;2023-03-05T09:55:37;6.70;99.90
49765;DHT22;35657;51.204;-4.130;2023-03-05T09:58:15;6.70;99.90
49765;DHT22;35657;51.204;-4.130;2023-03-05T10:03:24;6.70;99.90
49765;DHT22;35657;51.204;-4.130;2023-03-05T10:11:52;6.70;99.90
49765;DHT22;35657;51.204;-4.130;2023-03-05T10:14:35;6.70;99.90
49765;DHT22;35657;51.204;-4.130;2023-03-05T10:22:28;6.90;99.90
49765;DHT22;35657;51.204;-4.130;2023-03-05T10:46:50;6.90;99.90
49765;DHT22;35657;51.204;-4.130;2023-03-05T10:49:25;6.90;99.90
49765;DHT22;35657;51.204;-4.130;2023-03-05T10:54:27;6.90;99.90
49765;DHT22;35657;51.204;-4.130;2023-03-05T10:57:30;6.90;99.90
49765;DHT22;35657;51.204;-4.130;2023-03-05T11:02:31;6.90;99.90
49765;DHT22;35657;51.204;-4.130;2023-03-05T11:04:57;6.90;99.90
49765;DHT22;35657;51.204;-4.130;2023-03-05T11:07:30;6.90;99.90
49765;DHT22;35657;51.204;-4.130;2023-03-05T11:12:32;6.90;99.90
49765;DHT22;35657;51.204;-4.130;2023-03-05T11:25:33;6.90;99.90
49765;DHT22;35657;51.204;-4.130;2023-03-05T11:28:00;6.90;99.90
49765;DHT22;35657;51.204;-4.130;2023-03-05T11:30:32;6.90;99.90
49765;DHT22;35657;51.204;-4.130;2023-03-05T11:33:18;6.90;99.90
49765;DHT22;35657;51.204;-4.130;2023-03-05T11:35:45;7.00;99.90
49765;DHT22;35657;51.204;-4.130;2023-03-05T11:38:23;7.10;99.90
49765;DHT22;35657;51.204;-4.130;2023-03-05T11:40:51;7.20;99.90
49765;DHT22;35657;51.204;-4.130;2023-03-05T11:43:19;7.30;99.90
49765;DHT22;35657;51.204;-4.130;2023-03-05T11:45:49;7.30;99.90
49765;DHT22;35657;51.204;-4.130;2023-03-05T11:48:33;7.20;99.90
49765;DHT22;35657;51.204;-4.130;2023-03-05T11:51:01;7.20;99.90
49765;DHT22;35657;51.204;-4.130;2023-03-05T11:53:30;7.30;99.90
49765;DHT22;35657;51.204;-4.130;2023-03-05T11:56:20;7.20;99.90
49765;DHT22;35657;51.204;-4.130;2023-03-05T11:59:05;7.20;99.90
49765;DHT22;35657;51.204;-4.130;2023-03-05T12:01:35;7.30;99.90
49765;DHT22;35657;51.204;-4.130;2023-03-05T12:04:05;7.30;99.90
49765;DHT22;35657;51.204;-4.130;2023-03-05T12:09:06;7.10;99.90
49765;DHT22;35657;51.204;-4.130;2023-03-05T12:11:35;7.10;99.90
49765;DHT22;35657;51.204;-4.130;2023-03-05T12:14:10;7.10;99.90
49765;DHT22;35657;51.204;-4.130;2023-03-05T12:16:45;7.00;99.90
49765;DHT22;35657;51.204;-4.130;2023-03-05T12:19:37;7.00;99.90
49765;DHT22;35657;51.204;-4.130;2023-03-05T12:22:16;7.00;99.90
49765;DHT22;35657;51.204;-4.130;2023-03-05T12:24:43;7.00;99.90
49765;DHT22;35657;51.204;-4.130;2023-03-05T12:27:11;7.10;99.90
49765;DHT22;35657;51.204;-4.130;2023-03-05T12:29:52;7.00;99.90
49765;DHT22;35657;51.204;-4.130;2023-03-05T12:34:57;7.10;99.90
49765;DHT22;35657;51.204;-4.130;2023-03-05T12:58:18;7.10;99.90
49765;DHT22;35657;51.204;-4.130;2023-03-05T13:03:45;7.10;99.90
49765;DHT22;35657;51.204;-4.130;2023-03-05T13:06:32;7.10;99.90
49765;DHT22;35657;51.204;-4.130;2023-03-05T13:09:44;7.10;99.90
49765;DHT22;35657;51.204;-4.130;2023-03-05T13:11:50;7.10;99.90
49765;DHT22;35657;51.204;-4.130;2023-03-05T13:16:57;7.20;99.90
49765;DHT22;35657;51.204;-4.130;2023-03-05T13:19:23;7.30;99.90
49765;DHT22;35657;51.204;-4.130;2023-03-05T13:22:01;7.30;99.90
49765;DHT22;35657;51.204;-4.130;2023-03-05T13:24:27;7.50;99.90
49765;DHT22;35657;51.204;-4.130;2023-03-05T13:26:53;7.50;99.90
49765;DHT22;35657;51.204;-4.130;2023-03-05T13:29:20;7.50;99.90
49765;DHT22;35657;51.204;-4.130;2023-03-05T13:31:51;7.40;99.90
49765;DHT22;35657;51.204;-4.130;2023-03-05T13:34:32;7.40;99.90
49765;DHT22;35657;51.204;-4.130;2023-03-05T13:37:03;7.30;99.90
49765;DHT22;35657;51.204;-4.130;2023-03-05T13:39:41;7.30;99.90
49765;DHT22;35657;51.204;-4.130;2023-03-05T13:42:27;7.30;99.90
49765;DHT22;35657;51.204;-4.130;2023-03-05T13:44:58;7.30;99.90
49765;DHT22;35657;51.204;-4.130;2023-03-05T13:47:26;7.30;99.90
49765;DHT22;35657;51.204;-4.130;2023-03-05T13:49:57;7.40;99.90
49765;DHT22;35657;51.204;-4.130;2023-03-05T13:52:29;7.40;99.90
49765;DHT22;35657;51.204;-4.130;2023-03-05T13:55:00;7.40;99.90
49765;DHT22;35657;51.204;-4.130;2023-03-05T13:57:39;7.40;99.90
49765;DHT22;35657;51.204;-4.130;2023-03-05T14:00:35;7.50;99.90
49765;DHT22;35657;51.204;-4.130;2023-03-05T14:05:44;7.60;99.90
49765;DHT22;35657;51.204;-4.130;2023-03-05T14:08:28;7.60;99.90
49765;DHT22;35657;51.204;-4.130;2023-03-05T14:10:56;7.70;99.90
49765;DHT22;35657;51.204;-4.130;2023-03-05T14:13:24;7.70;99.90
49765;DHT22;35657;51.204;-4.130;2023-03-05T14:18:36;7.70;99.90
49765;DHT22;35657;51.204;-4.130;2023-03-05T14:21:07;7.70;99.90
49765;DHT22;35657;51.204;-4.130;2023-03-05T14:26:25;7.60;99.90
49765;DHT22;35657;51.204;-4.130;2023-03-05T14:28:53;7.60;99.90
49765;DHT22;35657;51.204;-4.130;2023-03-05T14:31:21;7.70;99.90
49765;DHT22;35657;51.204;-4.130;2023-03-05T14:33:48;7.70;99.90
49765;DHT22;35657;51.204;-4.130;2023-03-05T14:36:25;7.70;99.90
49765;DHT22;35657;51.204;-4.130;2023-03-05T14:38:53;7.60;99.90
49765;DHT22;35657;51.204;-4.130;2023-03-05T14:41:20;7.70;99.90
49765;DHT22;35657;51.204;-4.130;2023-03-05T14:43:47;7.80;99.90
49765;DHT22;35657;51.204;-4.130;2023-03-05T14:46:12;7.80;99.90
49765;DHT22;35657;51.204;-4.130;2023-03-05T14:48:38;7.70;99.90
49765;DHT22;35657;51.204;-4.130;2023-03-05T14:51:04;7.80;99.90
49765;DHT22;35657;51.204;-4.130;2023-03-05T14:53:37;7.80;99.90
49765;DHT22;35657;51.204;-4.130;2023-03-05T14:56:21;7.90;99.90
49765;DHT22;35657;51.204;-4.130;2023-03-05T14:58:47;7.80;99.90
49765;DHT22;35657;51.204;-4.130;2023-03-05T15:01:13;7.60;99.90
49765;DHT22;35657;51.204;-4.130;2023-03-05T15:03:38;7.60;99.90
49765;DHT22;35657;51.204;-4.130;2023-03-05T15:06:07;7.50;99.90
49765;DHT22;35657;51.204;-4.130;2023-03-05T15:08:36;7.50;99.90
49765;DHT22;35657;51.204;-4.130;2023-03-05T15:11:02;7.50;99.90
49765;DHT22;35657;51.204;-4.130;2023-03-05T15:13:28;7.40;99.90
49765;DHT22;35657;51.204;-4.130;2023-03-05T15:15:54;7.40;99.90
49765;DHT22;35657;51.204;-4.130;2023-03-05T15:18:21;7.40;99.90
49765;DHT22;35657;51.204;-4.130;2023-03-05T15:20:48;7.30;99.90
49765;DHT22;35657;51.204;-4.130;2023-03-05T15:23:16;7.30;99.90
49765;DHT22;35657;51.204;-4.130;2023-03-05T15:25:42;7.40;99.90
49765;DHT22;35657;51.204;-4.130;2023-03-05T15:28:07;7.40;99.90
49765;DHT22;35657;51.204;-4.130;2023-03-05T15:30:36;7.40;99.90
49765;DHT22;35657;51.204;-4.130;2023-03-05T15:33:05;7.50;99.90
49765;DHT22;35657;51.204;-4.130;2023-03-05T15:35:31;7.60;99.90
49765;DHT22;35657;51.204;-4.130;2023-03-05T15:37:56;7.60;99.90
49765;DHT22;35657;51.204;-4.130;2023-03-05T15:40:23;7.60;99.90
49765;DHT22;35657;51.204;-4.130;2023-03-05T15:42:49;7.70;99.90
49765;DHT22;35657;51.204;-4.130;2023-03-05T15:45:15;7.60;99.90
49765;DHT22;35657;51.204;-4.130;2023-03-05T15:47:41;7.70;99.90
49765;DHT22;35657;51.204;-4.130;2023-03-05T15:50:08;7.60;99.90
49765;DHT22;35657;51.204;-4.130;2023-03-05T15:52:34;7.60;99.90
49765;DHT22;35657;51.204;-4.130;2023-03-05T15:55:00;7.60;99.90
49765;DHT22;35657;51.204;-4.130;2023-03-05T15:57:26;7.60;99.90
49765;DHT22;35657;51.204;-4.130;2023-03-05T15:59:53;7.70;99.90
49765;DHT22;35657;51.204;-4.130;2023-03-05T16:02:19;7.70;99.90
49765;DHT22;35657;51.204;-4.130;2023-03-05T16:04:45;7.60;99.90
49765;DHT22;35657;51.204;-4.130;2023-03-05T16:07:12;7.60;99.90
49765;DHT22;35657;51.204;-4.130;2023-03-05T16:09:43;7.50;99.90
49765;DHT22;35657;51.204;-4.130;2023-03-05T16:12:14;7.70;99.90
49765;DHT22;35657;51.204;-4.130;2023-03-05T16:14:40;7.80;99.90
49765;DHT22;35657;51.204;-4.130;2023-03-05T16:17:07;7.70;99.90
49765;DHT22;35657;51.204;-4.130;2023-03-05T16:19:35;7.40;99.90
49765;DHT22;35657;51.204;-4.130;2023-03-05T16:22:01;7.50;99.90
49765;DHT22;35657;51.204;-4.130;2023-03-05T16:24:27;7.40;99.90
49765;DHT22;35657;51.204;-4.130;2023-03-05T16:26:53;7.40;99.90
49765;DHT22;35657;51.204;-4.130;2023-03-05T16:29:18;7.20;99.90
49765;DHT22;35657;51.204;-4.130;2023-03-05T16:31:44;7.10;99.90
49765;DHT22;35657;51.204;-4.130;2023-03-05T16:34:11;7.20;99.90
49765;DHT22;35657;51.204;-4.130;2023-03-05T16:36:40;7.20;99.90
49765;DHT22;35657;51.204;-4.130;2023-03-05T16:39:10;7.20;99.90
49765;DHT22;35657;51.204;-4.130;2023-03-05T16:41:35;7.10;99.90
49765;DHT22;35657;51.204;-4.130;2023-03-05T16:44:02;7.00;99.90
49765;DHT22;35657;51.204;-4.130;2023-03-05T16:46:29;7.10;99.90
49765;DHT22;35657;51.204;-4.130;2023-03-05T16:48:56;7.00;99.90
49765;DHT22;35657;51.204;-4.130;2023-03-05T16:51:22;7.10;99.90
49765;DHT22;35657;51.204;-4.130;2023-03-05T16:53:48;7.10;99.90
49765;DHT22;35657;51.204;-4.130;2023-03-05T16:56:14;7.20;99.90
49765;DHT22;35657;51.204;-4.130;2023-03-05T16:58:40;7.20;99.90
49765;DHT22;35657;51.204;-4.130;2023-03-05T17:01:15;7.20;99.90
49765;DHT22;35657;51.204;-4.130;2023-03-05T17:03:41;7.20;99.90
49765;DHT22;35657;51.204;-4.130;2023-03-05T17:06:20;7.20;99.90
49765;DHT22;35657;51.204;-4.130;2023-03-05T17:08:46;7.20;99.90
49765;DHT22;35657;51.204;-4.130;2023-03-05T17:11:12;7.20;99.90
49765;DHT22;35657;51.204;-4.130;2023-03-05T17:13:39;7.20;99.90
49765;DHT22;35657;51.204;-4.130;2023-03-05T17:16:06;7.20;99.90
49765;DHT22;35657;51.204;-4.130;2023-03-05T17:18:32;7.20;99.90